Time;durP1;ratioP1;P1;durP2;ratioP2;P2;SDS_P1;SDS_P2;PMS_P1;PMS_P2;Temp;Humidity;BMP_temperature;BMP_pressure;BME280_temperature;BME280_humidity;BME280_pressure;Samples;Min_cycle;Max_cycle;Signal;HPM_P1;HPM_P2
2023/05/25 00:00:37;;;;;;;;;14.75;13.75;26.10;48.20;;;;;;111272;1241;54436;-64
2023/05/25 00:03:26;;;;;;;;;15.00;14.00;26.10;48.20;;;;;;111412;1244;45269;-64
2023/05/25 00:05:53;;;;;;;;;15.25;14.25;26.10;48.10;;;;;;111273;1240;49582;-65
2023/05/25 00:08:20;;;;;;;;;13.75;12.50;26.10;48.30;;;;;;111180;1239;49768;-64
2023/05/25 00:10:47;;;;;;;;;15.25;14.00;26.10;48.00;;;;;;111211;1241;53523;-63
2023/05/25 00:13:14;;;;;;;;;15.75;14.75;26.10;48.20;;;;;;111189;1244;45495;-64
2023/05/25 00:15:41;;;;;;;;;15.25;14.00;26.10;48.00;;;;;;111267;1244;50536;-65
2023/05/25 00:18:08;;;;;;;;;15.25;14.25;26.10;48.10;;;;;;111211;1240;49128;-65
2023/05/25 00:20:35;;;;;;;;;17.00;16.00;26.10;48.00;;;;;;111198;1243;53762;-64
2023/05/25 00:23:02;;;;;;;;;19.00;15.33;26.10;48.00;;;;;;111250;1241;45887;-62
2023/05/25 00:25:29;;;;;;;;;16.75;15.75;26.10;48.00;;;;;;111184;1244;48978;-63
2023/05/25 00:27:56;;;;;;;;;20.00;17.00;26.10;48.10;;;;;;111196;1240;48931;-63
2023/05/25 00:30:23;;;;;;;;;16.25;14.00;26.10;48.10;;;;;;111233;1241;54368;-63
2023/05/25 00:32:50;;;;;;;;;15.00;14.00;26.10;48.00;;;;;;111211;1243;45031;-64
2023/05/25 00:35:17;;;;;;;;;14.00;13.00;26.10;48.00;;;;;;111228;1242;48794;-65
2023/05/25 00:37:44;;;;;;;;;13.75;12.75;26.10;47.50;;;;;;111190;1243;49699;-64
2023/05/25 00:40:15;;;;;;;;;19.75;15.00;26.10;48.00;;;;;;111224;1242;53626;-64
2023/05/25 00:42:42;;;;;;;;;15.25;14.25;26.10;47.90;;;;;;111227;1242;45960;-64
2023/05/25 00:45:10;;;;;;;;;14.00;12.00;26.10;47.90;;;;;;111242;1243;48838;-65
2023/05/25 00:47:42;;;;;;;;;15.75;13.25;26.10;48.10;;;;;;111239;1244;49170;-64
2023/05/25 00:50:09;;;;;;;;;15.00;14.00;26.10;48.10;;;;;;111269;1243;53970;-66
2023/05/25 00:52:37;;;;;;;;;15.25;13.00;26.10;47.80;;;;;;111166;1244;44134;-64
2023/05/25 00:55:06;;;;;;;;;15.75;13.75;26.10;48.00;;;;;;111213;1240;49391;-64
2023/05/25 00:57:36;;;;;;;;;15.00;14.00;26.10;47.80;;;;;;111240;1239;49375;-65
2023/05/25 01:00:09;;;;;;;;;18.50;15.25;26.10;47.80;;;;;;111225;1244;53511;-64
2023/05/25 01:02:41;;;;;;;;;12.50;11.50;26.10;48.00;;;;;;111171;1240;45492;-63
2023/05/25 01:05:09;;;;;;;;;15.50;12.00;26.10;47.80;;;;;;111151;1241;49481;-64
2023/05/25 01:07:38;;;;;;;;;14.00;12.50;26.10;47.80;;;;;;111281;1244;49120;-65
2023/05/25 01:10:06;;;;;;;;;15.67;14.33;26.10;47.80;;;;;;111276;1241;53442;-64
2023/05/25 01:12:37;;;;;;;;;14.00;12.75;26.10;47.70;;;;;;111220;1238;44322;-64
2023/05/25 01:15:05;;;;;;;;;14.00;13.00;26.10;47.80;;;;;;111227;1244;49667;-63
2023/05/25 01:17:36;;;;;;;;;17.75;16.75;26.10;47.70;;;;;;111362;1240;48685;-63
2023/05/25 01:20:06;;;;;;;;;15.00;11.00;26.10;47.90;;;;;;111302;1244;53301;-62
2023/05/25 01:22:39;;;;;;;;;16.25;14.00;26.10;47.70;;;;;;111204;1238;44927;-64
2023/05/25 01:25:20;;;;;;;;;16.67;14.00;26.10;47.70;;;;;;111228;1243;49270;-64
2023/05/25 01:27:55;;;;;;;;;14.25;13.25;26.10;47.70;;;;;;111202;1238;50214;-64
2023/05/25 01:30:24;;;;;;;;;14.50;13.00;26.10;47.70;;;;;;111297;1240;53491;-63
2023/05/25 01:32:53;;;;;;;;;15.75;14.75;26.10;47.60;;;;;;111229;1244;44582;-64
2023/05/25 01:35:21;;;;;;;;;14.25;13.25;26.10;47.60;;;;;;111337;1243;48976;-64
2023/05/25 01:37:49;;;;;;;;;15.00;14.00;26.10;47.90;;;;;;111206;1243;49530;-63
2023/05/25 01:40:16;;;;;;;;;14.50;13.25;26.10;47.80;;;;;;111261;1240;54089;-63
2023/05/25 01:42:43;;;;;;;;;14.50;13.75;26.10;47.60;;;;;;111208;1243;44597;-62
2023/05/25 01:45:12;;;;;;;;;14.67;13.67;26.10;47.60;;;;;;111218;1243;49106;-64
2023/05/25 01:47:55;;;;;;;;;15.00;14.00;26.10;47.90;;;;;;111258;1240;48989;-63
2023/05/25 01:50:26;;;;;;;;;14.00;13.00;26.10;47.60;;;;;;111168;1240;54231;-63
2023/05/25 01:53:02;;;;;;;;;19.25;13.00;26.10;47.50;;;;;;111252;1239;44942;-64
2023/05/25 01:55:36;;;;;;;;;15.00;12.25;26.10;47.60;;;;;;111303;1243;50401;-64
2023/05/25 01:58:04;;;;;;;;;15.25;12.50;26.10;47.60;;;;;;111220;1238;48940;-64
2023/05/25 02:00:31;;;;;;;;;14.00;13.00;26.10;47.70;;;;;;111146;1241;54261;-65
2023/05/25 02:03:00;;;;;;;;;15.00;12.00;26.10;47.70;;;;;;111194;1244;44681;-65
2023/05/25 02:05:27;;;;;;;;;13.00;12.00;26.10;47.50;;;;;;111315;1239;50462;-65
2023/05/25 02:07:54;;;;;;;;;15.00;14.00;26.10;47.50;;;;;;111275;1240;49879;-64
2023/05/25 02:10:21;;;;;;;;;14.00;12.75;26.10;47.50;;;;;;111248;1240;53584;-63
2023/05/25 02:12:48;;;;;;;;;14.75;13.75;26.10;47.60;;;;;;111200;1242;44214;-63
2023/05/25 02:15:15;;;;;;;;;15.00;14.00;26.10;47.50;;;;;;111238;1239;49065;-63
2023/05/25 02:17:43;;;;;;;;;15.25;14.25;26.00;47.60;;;;;;111195;1243;50745;-63
2023/05/25 02:20:11;;;;;;;;;15.67;14.67;26.10;47.50;;;;;;111362;1243;54480;-64
2023/05/25 02:22:37;;;;;;;;;15.67;12.67;26.10;47.40;;;;;;111166;1243;45112;-63
2023/05/25 02:25:05;;;;;;;;;14.00;13.00;26.10;47.50;;;;;;111203;1241;49774;-63
2023/05/25 02:27:32;;;;;;;;;13.75;12.75;26.00;47.50;;;;;;111189;1243;49762;-63
2023/05/25 02:29:59;;;;;;;;;14.00;13.00;26.00;47.40;;;;;;111172;1241;53823;-62
2023/05/25 02:32:28;;;;;;;;;14.75;13.75;26.00;47.40;;;;;;111180;1240;45570;-63
2023/05/25 02:34:55;;;;;;;;;12.75;11.75;26.00;47.40;;;;;;111250;1243;50636;-63
2023/05/25 02:37:21;;;;;;;;;12.75;11.75;26.00;47.40;;;;;;111173;1240;49769;-63
2023/05/25 02:39:49;;;;;;;;;14.75;13.00;26.00;47.00;;;;;;111221;1240;54456;-63
2023/05/25 02:42:15;;;;;;;;;14.00;13.00;26.00;47.40;;;;;;111172;1244;44617;-63
2023/05/25 02:44:47;;;;;;;;;13.75;12.75;26.00;47.40;;;;;;111203;1241;49438;-63
2023/05/25 02:47:15;;;;;;;;;15.00;14.00;26.00;47.60;;;;;;111205;1239;49859;-63
2023/05/25 02:49:42;;;;;;;;;11.25;10.25;26.10;47.70;;;;;;111227;1240;54547;-64
2023/05/25 02:52:09;;;;;;;;;13.75;12.75;26.00;47.40;;;;;;111194;1240;45606;-64
2023/05/25 02:54:36;;;;;;;;;17.00;13.50;26.00;47.30;;;;;;111182;1241;49783;-64
2023/05/25 02:57:04;;;;;;;;;16.25;14.00;26.00;47.60;;;;;;111216;1242;49149;-64
2023/05/25 02:59:31;;;;;;;;;13.00;12.00;26.00;47.50;;;;;;111183;1240;54186;-65
2023/05/25 03:01:58;;;;;;;;;13.67;12.33;26.00;47.60;;;;;;111204;1243;44968;-65
2023/05/25 03:04:25;;;;;;;;;13.75;12.75;26.00;47.30;;;;;;111230;1243;49058;-66
2023/05/25 03:06:52;;;;;;;;;12.75;11.75;26.00;47.30;;;;;;111200;1238;49413;-65
2023/05/25 03:09:19;;;;;;;;;13.50;12.25;26.00;47.50;;;;;;111189;1239;53470;-64
2023/05/25 03:11:46;;;;;;;;;16.00;13.00;26.00;47.30;;;;;;111241;1240;44867;-65
2023/05/25 03:14:13;;;;;;;;;14.75;13.75;26.00;47.30;;;;;;111362;1239;50703;-64
2023/05/25 03:16:40;;;;;;;;;12.67;11.33;26.00;47.30;;;;;;111226;1239;50575;-65
2023/05/25 03:19:09;;;;;;;;;12.00;11.00;26.00;47.30;;;;;;111235;1243;53954;-66
2023/05/25 03:21:37;;;;;;;;;13.25;12.25;26.00;47.50;;;;;;111195;1243;44367;-65
2023/05/25 03:24:04;;;;;;;;;12.75;11.50;26.00;47.30;;;;;;111202;1243;50114;-65
2023/05/25 03:26:32;;;;;;;;;14.25;13.00;26.00;47.30;;;;;;111533;1244;50056;-65
2023/05/25 03:28:59;;;;;;;;;13.75;12.75;26.00;47.30;;;;;;111220;1239;54275;-64
2023/05/25 03:31:25;;;;;;;;;13.25;11.25;26.00;47.20;;;;;;111184;1241;44790;-63
2023/05/25 03:33:52;;;;;;;;;15.00;14.00;26.00;47.20;;;;;;111401;1243;50491;-64
2023/05/25 03:36:21;;;;;;;;;13.00;12.00;26.00;47.30;;;;;;111243;1238;50821;-64
2023/05/25 03:38:48;;;;;;;;;15.00;14.00;26.00;47.30;;;;;;111174;1244;54204;-63
2023/05/25 03:41:14;;;;;;;;;11.00;10.00;26.00;47.20;;;;;;111216;1240;44750;-64
2023/05/25 03:43:41;;;;;;;;;13.75;11.25;26.00;47.40;;;;;;111258;1241;49133;-64
2023/05/25 03:46:10;;;;;;;;;12.00;11.00;26.00;47.20;;;;;;111223;1239;49812;-64
2023/05/25 03:48:37;;;;;;;;;13.25;12.00;26.00;47.20;;;;;;111207;1244;54035;-64
2023/05/25 03:51:05;;;;;;;;;13.50;12.50;26.00;47.20;;;;;;111224;1243;45070;-63
2023/05/25 03:53:32;;;;;;;;;12.00;11.00;26.00;47.20;;;;;;111246;1243;49708;-64
2023/05/25 03:55:58;;;;;;;;;12.50;11.50;26.00;47.20;;;;;;111311;1240;49948;-64
2023/05/25 03:58:25;;;;;;;;;14.67;13.67;26.00;47.40;;;;;;111085;1245;54448;-64
2023/05/25 04:00:53;;;;;;;;;13.00;12.00;26.00;47.20;;;;;;111276;1240;45528;-64
2023/05/25 04:03:21;;;;;;;;;12.00;11.00;26.00;47.10;;;;;;111405;1244;49119;-64
2023/05/25 04:05:48;;;;;;;;;14.00;13.00;26.00;47.10;;;;;;111225;1243;49444;-64
2023/05/25 04:08:19;;;;;;;;;12.00;11.00;26.00;47.10;;;;;;111279;1241;53561;-64
2023/05/25 04:10:46;;;;;;;;;12.33;11.00;26.00;47.10;;;;;;111480;1244;45090;-63
2023/05/25 04:13:13;;;;;;;;;12.00;11.00;26.00;47.30;;;;;;111302;1240;50119;-63
2023/05/25 04:15:40;;;;;;;;;15.33;11.33;26.00;47.10;;;;;;111268;1240;49378;-65
2023/05/25 04:18:07;;;;;;;;;12.00;11.00;25.90;47.10;;;;;;111224;1244;53759;-65
2023/05/25 04:20:35;;;;;;;;;12.00;9.00;26.00;47.20;;;;;;111196;1244;44999;-63
2023/05/25 04:23:02;;;;;;;;;11.25;10.00;26.00;47.10;;;;;;111230;1242;49410;-63
2023/05/25 04:25:30;;;;;;;;;14.00;13.00;26.00;47.20;;;;;;111314;1243;49694;-63
2023/05/25 04:27:57;;;;;;;;;12.00;10.00;26.00;47.10;;;;;;111191;1244;54696;-64
2023/05/25 04:30:24;;;;;;;;;13.75;10.75;26.00;47.10;;;;;;111205;1243;44080;-64
2023/05/25 04:32:51;;;;;;;;;12.00;11.00;26.00;47.30;;;;;;111274;1239;49276;-63
2023/05/25 04:35:19;;;;;;;;;11.50;10.00;26.00;47.10;;;;;;111293;1242;49181;-62
2023/05/25 04:37:47;;;;;;;;;14.00;12.00;26.00;47.00;;;;;;111156;1240;54283;-63
2023/05/25 04:40:14;;;;;;;;;14.00;12.00;26.00;47.00;;;;;;111201;1240;44415;-62
2023/05/25 04:42:41;;;;;;;;;11.00;10.00;26.00;47.00;;;;;;111209;1243;50092;-62
2023/05/25 04:45:16;;;;;;;;;13.00;11.75;26.00;47.20;;;;;;111228;1240;49854;-63
2023/05/25 04:47:44;;;;;;;;;14.25;13.25;26.00;47.00;;;;;;111205;1243;54105;-63
2023/05/25 04:50:12;;;;;;;;;15.00;12.00;26.00;46.90;;;;;;111215;1240;44923;-63
2023/05/25 04:52:39;;;;;;;;;12.00;11.00;26.00;47.50;;;;;;111256;1243;50001;-63
2023/05/25 04:55:06;;;;;;;;;12.67;11.67;26.00;47.00;;;;;;111355;1240;49919;-62
2023/05/25 04:57:33;;;;;;;;;11.00;10.00;26.00;46.90;;;;;;111236;1240;53502;-63
2023/05/25 05:00:00;;;;;;;;;14.33;12.33;26.00;46.90;;;;;;111293;1238;45265;-62
2023/05/25 05:02:27;;;;;;;;;15.00;11.00;26.00;46.90;;;;;;111221;1238;49860;-63
2023/05/25 05:04:54;;;;;;;;;12.00;11.00;26.00;46.90;;;;;;111192;1238;49560;-63
2023/05/25 05:07:21;;;;;;;;;12.00;11.00;26.00;47.00;;;;;;111200;1238;53881;-65
2023/05/25 05:09:48;;;;;;;;;11.75;10.75;26.00;46.90;;;;;;111224;1239;45032;-62
2023/05/25 05:12:15;;;;;;;;;13.00;12.00;26.00;46.80;;;;;;111180;1242;50146;-63
2023/05/25 05:14:42;;;;;;;;;11.75;10.75;26.00;46.90;;;;;;111233;1240;49435;-65
2023/05/25 05:17:09;;;;;;;;;13.67;12.33;26.00;47.00;;;;;;111380;1243;54062;-66
2023/05/25 05:19:36;;;;;;;;;17.75;14.00;26.00;47.60;;;;;;111337;1243;44086;-62
2023/05/25 05:22:03;;;;;;;;;14.33;13.33;26.00;47.80;;;;;;111396;1240;50092;-62
2023/05/25 05:24:30;;;;;;;;;16.00;15.00;26.00;47.90;;;;;;111649;1243;49858;-62
2023/05/25 05:26:57;;;;;;;;;18.50;15.00;26.00;48.10;;;;;;111382;1243;53978;-63
2023/05/25 05:29:24;;;;;;;;;16.25;14.00;26.10;48.10;;;;;;111359;1240;44179;-63
2023/05/25 05:31:50;;;;;;;;;19.75;16.75;26.10;48.20;;;;;;111312;1243;49456;-62
2023/05/25 05:34:17;;;;;;;;;19.00;18.00;26.00;48.00;;;;;;111505;1244;50419;-63
2023/05/25 05:36:44;;;;;;;;;21.50;17.75;26.00;48.20;;;;;;111477;1240;54767;-62
2023/05/25 05:39:11;;;;;;;;;17.00;14.00;26.00;48.40;;;;;;111350;1243;44632;-62
2023/05/25 05:41:42;;;;;;;;;18.00;17.25;26.00;48.50;;;;;;111568;1240;48964;-63
2023/05/25 05:44:10;;;;;;;;;18.00;16.75;25.90;48.60;;;;;;111474;1240;49804;-63
2023/05/25 05:46:37;;;;;;;;;18.00;17.00;25.90;48.70;;;;;;111466;1244;54707;-61
2023/05/25 05:49:04;;;;;;;;;17.00;16.00;25.90;48.60;;;;;;111404;1240;44983;-62
2023/05/25 05:51:31;;;;;;;;;16.00;15.00;25.90;48.50;;;;;;111428;1244;50214;-61
2023/05/25 05:53:58;;;;;;;;;16.00;15.00;25.90;48.60;;;;;;111380;1239;49372;-62
2023/05/25 05:56:25;;;;;;;;;16.50;15.25;25.80;48.70;;;;;;111698;1238;54208;-63
2023/05/25 05:58:53;;;;;;;;;18.50;16.00;25.80;48.60;;;;;;111416;1240;45115;-63
2023/05/25 06:01:20;;;;;;;;;20.33;18.33;25.80;48.60;;;;;;111321;1239;50558;-63
2023/05/25 06:03:48;;;;;;;;;16.75;15.75;25.80;48.70;;;;;;111304;1244;49837;-63
2023/05/25 06:06:15;;;;;;;;;20.25;17.00;25.80;48.90;;;;;;111607;1243;53513;-64
2023/05/25 06:08:42;;;;;;;;;17.67;16.67;25.70;48.90;;;;;;111486;1238;45312;-63
2023/05/25 06:11:09;;;;;;;;;17.00;15.00;25.80;49.00;;;;;;111536;1240;49472;-63
2023/05/25 06:13:36;;;;;;;;;18.33;15.00;25.80;49.10;;;;;;111315;1243;48892;-62
2023/05/25 06:16:03;;;;;;;;;19.00;18.00;25.70;49.10;;;;;;111576;1243;53382;-63
2023/05/25 06:18:30;;;;;;;;;18.00;17.00;25.70;49.20;;;;;;111293;1238;45287;-62
2023/05/25 06:20:57;;;;;;;;;18.33;17.33;25.70;49.20;;;;;;111328;1241;49648;-63
2023/05/25 06:23:24;;;;;;;;;16.33;15.33;25.70;49.30;;;;;;111416;1240;49422;-62
2023/05/25 06:25:52;;;;;;;;;21.50;18.00;25.70;49.40;;;;;;111693;1243;55078;-62
2023/05/25 06:28:18;;;;;;;;;17.33;16.67;25.70;49.60;;;;;;111394;1238;44954;-62
2023/05/25 06:30:46;;;;;;;;;19.00;16.75;25.70;49.40;;;;;;111220;1241;49809;-62
2023/05/25 06:33:14;;;;;;;;;16.75;15.75;25.70;49.50;;;;;;111391;1240;49315;-63
2023/05/25 06:35:41;;;;;;;;;17.75;15.00;25.70;49.60;;;;;;111697;1240;53638;-63
2023/05/25 06:38:10;;;;;;;;;14.00;12.50;25.70;49.40;;;;;;111423;1238;44842;-63
2023/05/25 06:40:37;;;;;;;;;20.25;18.00;25.80;49.30;;;;;;111381;1240;49012;-63
2023/05/25 06:43:04;;;;;;;;;16.00;15.00;25.80;49.80;;;;;;111409;1243;49033;-63
2023/05/25 06:45:31;;;;;;;;;15.75;14.50;25.80;50.10;;;;;;111616;1243;54379;-63
2023/05/25 06:47:58;;;;;;;;;21.75;20.75;25.80;49.80;;;;;;111370;1240;44788;-63
2023/05/25 06:50:24;;;;;;;;;19.75;18.75;25.80;49.80;;;;;;111420;1243;49830;-63
2023/05/25 06:52:51;;;;;;;;;17.75;16.75;25.80;49.80;;;;;;111346;1244;49370;-63
2023/05/25 06:55:18;;;;;;;;;15.75;14.75;25.80;50.10;;;;;;111652;1244;54164;-64
2023/05/25 06:57:45;;;;;;;;;18.00;17.00;25.80;49.90;;;;;;111463;1243;45530;-63
2023/05/25 07:00:13;;;;;;;;;23.25;20.25;25.90;49.80;;;;;;111454;1240;49066;-68
2023/05/25 07:02:40;;;;;;;;;19.25;16.50;25.90;49.70;;;;;;111377;1243;49931;-64
2023/05/25 07:05:07;;;;;;;;;19.33;16.67;25.90;49.80;;;;;;111838;1243;53643;-63
2023/05/25 07:07:34;;;;;;;;;21.25;17.50;25.90;50.00;;;;;;111314;1243;44596;-62
2023/05/25 07:10:02;;;;;;;;;20.00;17.50;25.90;50.10;;;;;;111237;1243;49232;-62
2023/05/25 07:12:30;;;;;;;;;22.50;20.00;25.90;50.00;;;;;;111351;1243;48901;-62
2023/05/25 07:14:57;;;;;;;;;19.75;18.75;25.90;50.10;;;;;;111276;1243;53504;-62
2023/05/25 07:17:25;;;;;;;;;19.67;17.00;25.90;49.40;;;;;;111414;1239;45866;-60
2023/05/25 07:19:52;;;;;;;;;19.50;17.00;25.90;49.00;;;;;;111340;1244;49724;-61
2023/05/25 07:22:19;;;;;;;;;17.75;16.25;25.90;48.90;;;;;;111295;1239;49868;-65
2023/05/25 07:24:46;;;;;;;;;17.25;16.25;25.90;48.40;;;;;;111221;1240;53524;-61
2023/05/25 07:27:13;;;;;;;;;18.75;17.75;25.90;49.10;;;;;;111290;1242;44157;-60
2023/05/25 07:29:40;;;;;;;;;19.50;18.50;25.90;49.20;;;;;;111274;1243;50241;-60
2023/05/25 07:32:07;;;;;;;;;21.33;18.67;25.90;49.50;;;;;;111309;1241;49079;-62
2023/05/25 07:34:34;;;;;;;;;20.25;16.00;25.90;49.70;;;;;;111311;1241;53822;-59
2023/05/25 07:37:01;;;;;;;;;20.00;16.50;26.00;50.00;;;;;;111375;1241;44125;-63
2023/05/25 07:39:28;;;;;;;;;21.50;18.50;26.00;49.70;;;;;;111390;1243;50036;-60
2023/05/25 07:41:55;;;;;;;;;21.75;17.00;26.00;49.30;;;;;;111247;1243;49938;-60
2023/05/25 07:44:22;;;;;;;;;17.00;16.00;26.00;49.80;;;;;;111326;1243;54994;-60
2023/05/25 07:46:51;;;;;;;;;19.00;18.00;26.00;49.50;;;;;;111261;1239;45312;-59
2023/05/25 07:49:17;;;;;;;;;24.50;20.25;26.00;49.30;;;;;;111240;1244;50588;-59
2023/05/25 07:51:44;;;;;;;;;20.50;17.75;26.00;49.50;;;;;;111445;1239;49428;-58
2023/05/25 07:54:11;;;;;;;;;24.00;19.75;26.00;49.60;;;;;;111236;1239;53787;-59
2023/05/25 07:56:38;;;;;;;;;20.33;18.00;26.00;49.90;;;;;;110453;1243;1241768;-59
2023/05/25 07:59:05;;;;;;;;;20.50;18.00;26.00;49.30;;;;;;111437;1240;49466;-60
2023/05/25 08:01:32;;;;;;;;;19.00;18.00;26.00;50.00;;;;;;111285;1238;49768;-59
2023/05/25 08:03:59;;;;;;;;;18.75;17.75;26.00;50.20;;;;;;111213;1240;53712;-57
2023/05/25 08:06:26;;;;;;;;;20.00;17.25;26.00;50.40;;;;;;111248;1242;45716;-58
2023/05/25 08:08:53;;;;;;;;;19.00;17.00;26.10;50.20;;;;;;111305;1240;49863;-60
2023/05/25 08:11:26;;;;;;;;;19.75;17.50;26.10;50.00;;;;;;111206;1240;50628;-59
2023/05/25 08:13:53;;;;;;;;;17.75;16.75;26.10;50.20;;;;;;111267;1240;54220;-59
2023/05/25 08:16:20;;;;;;;;;19.75;18.75;26.20;49.80;;;;;;111277;1240;45222;-61
2023/05/25 08:18:47;;;;;;;;;21.50;19.00;26.20;49.80;;;;;;111358;1244;49135;-58
2023/05/25 08:21:14;;;;;;;;;19.50;18.50;26.30;50.00;;;;;;111283;1240;48959;-62
2023/05/25 08:23:41;;;;;;;;;19.25;15.25;26.30;49.80;;;;;;111223;1246;54074;-60
2023/05/25 08:26:10;;;;;;;;;19.25;17.00;26.40;49.70;;;;;;111274;1238;44244;-59
2023/05/25 08:28:37;;;;;;;;;23.00;19.25;26.40;49.60;;;;;;111306;1243;48943;-57
2023/05/25 08:31:04;;;;;;;;;20.25;18.00;26.50;49.40;;;;;;111272;1239;49113;-58
2023/05/25 08:33:31;;;;;;;;;19.75;18.75;26.50;49.60;;;;;;111238;1238;54199;-56
2023/05/25 08:35:58;;;;;;;;;17.33;16.33;26.50;49.50;;;;;;111305;1239;44706;-57
2023/05/25 08:38:25;;;;;;;;;19.00;16.00;26.50;49.30;;;;;;111349;1243;49580;-57
2023/05/25 08:41:02;;;;;;;;;21.50;18.50;26.50;49.20;;;;;;111286;1244;50451;-56
2023/05/25 08:43:29;;;;;;;;;18.00;17.00;26.50;49.30;;;;;;111252;1240;54406;-57
2023/05/25 08:46:03;;;;;;;;;21.00;17.00;26.60;49.70;;;;;;111283;1243;44229;-57
2023/05/25 08:48:34;;;;;;;;;22.50;20.75;26.60;49.70;;;;;;111259;1240;50579;-58
2023/05/25 08:51:09;;;;;;;;;19.00;17.00;26.60;49.50;;;;;;111231;1243;49635;-58
2023/05/25 08:53:38;;;;;;;;;19.33;18.33;26.60;49.60;;;;;;111269;1243;54127;-59
2023/05/25 08:56:13;;;;;;;;;18.25;16.75;26.60;49.20;;;;;;111273;1240;44891;-58
2023/05/25 08:58:45;;;;;;;;;20.00;18.00;26.70;49.60;;;;;;111225;1244;49791;-58
2023/05/25 09:01:14;;;;;;;;;21.25;16.00;26.70;49.30;;;;;;111213;1243;49782;-60
2023/05/25 09:03:42;;;;;;;;;17.33;16.00;26.70;49.10;;;;;;111244;1243;53409;-58
2023/05/25 09:06:10;;;;;;;;;20.75;18.25;26.70;49.20;;;;;;111274;1243;45698;-58
2023/05/25 09:08:38;;;;;;;;;18.00;17.00;26.70;49.40;;;;;;111249;1239;49515;-58
2023/05/25 09:11:06;;;;;;;;;18.00;17.00;26.70;49.30;;;;;;111150;1245;49637;-57
2023/05/25 09:13:34;;;;;;;;;19.50;18.00;26.70;49.20;;;;;;111192;1238;53689;-57
2023/05/25 09:16:01;;;;;;;;;18.50;17.25;26.70;49.20;;;;;;111355;1240;44907;-58
2023/05/25 09:18:27;;;;;;;;;19.75;18.75;26.80;49.30;;;;;;111254;1240;49544;-58
2023/05/25 09:20:55;;;;;;;;;18.00;17.00;26.80;49.20;;;;;;111290;1244;49852;-58
2023/05/25 09:23:22;;;;;;;;;16.75;15.75;26.80;49.10;;;;;;111254;1243;53254;-57
2023/05/25 09:25:50;;;;;;;;;17.75;16.50;26.80;48.90;;;;;;111318;1240;45137;-58
2023/05/25 09:28:20;;;;;;;;;21.00;20.00;26.90;48.80;;;;;;111305;1244;50162;-57
2023/05/25 09:30:47;;;;;;;;;21.33;19.33;26.90;48.70;;;;;;111220;1238;49929;-57
2023/05/25 09:33:18;;;;;;;;;20.00;18.75;26.90;48.70;;;;;;111226;1241;53991;-57
2023/05/25 09:35:47;;;;;;;;;20.00;17.67;26.90;48.70;;;;;;111255;1239;45138;-57
2023/05/25 09:38:15;;;;;;;;;18.00;17.00;27.00;48.90;;;;;;111222;1240;49313;-57
2023/05/25 09:40:42;;;;;;;;;18.67;17.67;27.00;49.00;;;;;;111291;1244;49704;-58
2023/05/25 09:43:10;;;;;;;;;19.00;18.00;27.00;48.90;;;;;;111277;1244;54204;-58
2023/05/25 09:45:37;;;;;;;;;20.00;17.25;27.00;49.20;;;;;;111330;1239;45052;-58
2023/05/25 09:48:06;;;;;;;;;19.00;18.00;27.00;49.20;;;;;;111253;1241;50526;-59
2023/05/25 09:50:35;;;;;;;;;23.00;19.00;27.00;49.30;;;;;;111247;1243;49186;-59
2023/05/25 09:53:02;;;;;;;;;22.50;20.00;27.00;49.40;;;;;;111233;1243;54294;-59
2023/05/25 09:55:29;;;;;;;;;19.75;16.75;27.00;49.30;;;;;;111265;1243;44438;-58
2023/05/25 09:57:57;;;;;;;;;23.00;18.33;27.00;49.20;;;;;;111287;1243;49742;-58
2023/05/25 10:00:24;;;;;;;;;19.25;17.25;27.00;49.10;;;;;;111271;1243;49741;-57
2023/05/25 10:02:51;;;;;;;;;19.00;17.00;27.00;49.30;;;;;;111271;1240;54912;-58
2023/05/25 10:05:19;;;;;;;;;23.00;20.25;27.00;49.30;;;;;;111330;1243;45055;-56
2023/05/25 10:07:47;;;;;;;;;24.50;20.25;27.00;49.10;;;;;;111254;1243;49892;-57
2023/05/25 10:10:15;;;;;;;;;21.50;17.75;27.10;49.10;;;;;;111360;1240;49451;-57
2023/05/25 10:12:43;;;;;;;;;20.75;18.50;27.10;49.10;;;;;;111346;1239;54036;-57
2023/05/25 10:15:12;;;;;;;;;24.00;22.00;27.20;49.10;;;;;;111347;1238;45856;-59
2023/05/25 10:17:51;;;;;;;;;19.25;16.25;27.20;49.10;;;;;;111279;1244;49644;-59
2023/05/25 10:20:20;;;;;;;;;21.25;19.00;27.30;49.10;;;;;;111306;1241;49062;-58
2023/05/25 10:22:55;;;;;;;;;18.67;16.67;27.30;49.20;;;;;;111326;1244;54321;-57
2023/05/25 10:25:25;;;;;;;;;19.00;18.00;27.30;48.90;;;;;;111461;1239;44926;-58
2023/05/25 10:28:05;;;;;;;;;21.33;20.67;27.30;49.00;;;;;;111295;1243;49944;-58
2023/05/25 10:30:32;;;;;;;;;19.50;17.00;27.40;48.80;;;;;;111333;1240;49353;-59
2023/05/25 10:33:02;;;;;;;;;17.00;16.00;27.40;49.00;;;;;;111286;1244;54458;-60
2023/05/25 10:35:29;;;;;;;;;19.50;16.75;27.40;48.80;;;;;;111325;1240;45138;-59
2023/05/25 10:37:57;;;;;;;;;20.67;19.67;27.40;49.00;;;;;;111260;1240;50629;-58
2023/05/25 10:40:24;;;;;;;;;19.75;17.25;27.40;49.00;;;;;;111258;1243;49695;-59
2023/05/25 10:42:51;;;;;;;;;20.50;18.00;27.40;49.10;;;;;;111184;1244;54402;-57
2023/05/25 10:45:19;;;;;;;;;21.50;18.75;27.40;49.10;;;;;;111265;1243;44176;-59
2023/05/25 10:47:46;;;;;;;;;20.00;17.75;27.40;49.20;;;;;;111325;1240;49509;-58
2023/05/25 10:50:25;;;;;;;;;20.75;19.75;27.40;49.20;;;;;;111304;1243;49940;-58
2023/05/25 10:53:04;;;;;;;;;19.50;17.00;27.50;48.90;;;;;;111396;1243;54755;-57
2023/05/25 10:55:47;;;;;;;;;15.67;14.67;27.50;48.80;;;;;;111302;1241;44463;-58
2023/05/25 10:58:19;;;;;;;;;19.00;18.00;27.50;48.70;;;;;;111226;1244;49368;-60
2023/05/25 11:01:15;;;;;;;;;20.75;19.75;27.50;48.80;;;;;;111307;1243;49957;-59
2023/05/25 11:04:04;;;;;;;;;18.75;17.25;27.50;48.60;;;;;;111244;1241;54231;-58
2023/05/25 11:06:39;;;;;;;;;16.75;15.75;27.50;48.50;;;;;;111272;1240;45296;-59
2023/05/25 11:09:06;;;;;;;;;17.67;16.33;27.60;48.40;;;;;;111260;1243;49004;-58
2023/05/25 11:11:43;;;;;;;;;17.50;16.25;27.60;48.20;;;;;;111188;1243;50407;-59
2023/05/25 11:14:42;;;;;;;;;19.75;17.00;27.60;48.10;;;;;;111303;1243;54764;-59
2023/05/25 11:17:14;;;;;;;;;19.00;17.00;27.60;48.00;;;;;;111247;1243;45121;-59
2023/05/25 11:19:42;;;;;;;;;19.00;16.00;27.60;47.30;;;;;;111243;1244;49259;-60
2023/05/25 11:22:19;;;;;;;;;17.00;16.00;27.70;47.80;;;;;;111249;1238;50432;-60
2023/05/25 11:24:50;;;;;;;;;17.50;16.50;27.70;47.80;;;;;;111326;1244;54574;-60
2023/05/25 11:27:28;;;;;;;;;18.00;17.00;27.60;47.70;;;;;;111247;1240;44920;-59
2023/05/25 11:29:57;;;;;;;;;18.00;17.00;27.70;47.90;;;;;;111452;1240;50088;-60
2023/05/25 11:32:26;;;;;;;;;19.50;18.75;27.70;48.10;;;;;;111343;1238;49770;-59
2023/05/25 11:34:54;;;;;;;;;18.00;15.75;27.70;47.90;;;;;;111259;1243;53443;-60
2023/05/25 11:37:27;;;;;;;;;16.75;15.75;27.70;47.90;;;;;;111327;1239;44285;-59
2023/05/25 11:39:54;;;;;;;;;16.25;14.50;27.70;48.30;;;;;;111297;1244;49599;-58
2023/05/25 11:42:23;;;;;;;;;20.50;18.25;27.80;48.00;;;;;;111319;1244;48911;-58
2023/05/25 11:44:50;;;;;;;;;16.75;15.50;27.80;48.10;;;;;;111270;1239;53904;-58
2023/05/25 11:47:21;;;;;;;;;22.50;20.25;27.90;48.10;;;;;;111322;1243;44426;-58
2023/05/25 11:49:48;;;;;;;;;18.25;16.75;27.90;47.80;;;;;;111255;1240;49945;-58
2023/05/25 11:52:17;;;;;;;;;17.00;15.00;27.90;47.60;;;;;;111252;1243;49008;-60
2023/05/25 11:54:44;;;;;;;;;18.00;17.25;27.90;47.20;;;;;;111249;1243;53462;-59
2023/05/25 11:57:16;;;;;;;;;17.75;16.00;27.90;47.70;;;;;;111260;1244;44785;-58
2023/05/25 11:59:52;;;;;;;;;20.25;17.00;27.90;47.70;;;;;;111254;1244;49329;-59
2023/05/25 12:02:20;;;;;;;;;18.25;16.50;27.90;47.80;;;;;;111258;1240;49396;-60
2023/05/25 12:04:58;;;;;;;;;17.00;16.00;27.90;47.50;;;;;;111327;1240;54045;-59
2023/05/25 12:07:27;;;;;;;;;16.25;15.25;27.90;47.30;;;;;;111384;1243;44268;-59
2023/05/25 12:10:08;;;;;;;;;16.00;15.00;27.90;47.30;;;;;;111320;1244;50496;-60
2023/05/25 12:12:41;;;;;;;;;18.25;15.50;27.90;47.20;;;;;;111208;1240;49859;-59
2023/05/25 12:15:11;;;;;;;;;18.50;16.00;27.90;47.20;;;;;;111313;1243;54637;-59
2023/05/25 12:17:42;;;;;;;;;16.00;15.00;27.90;47.10;;;;;;111353;1243;45429;-59
2023/05/25 12:20:11;;;;;;;;;17.75;16.75;27.90;47.10;;;;;;111350;1240;50439;-58
2023/05/25 12:22:38;;;;;;;;;21.25;19.25;27.90;47.00;;;;;;111286;1241;49508;-60
2023/05/25 12:25:07;;;;;;;;;19.00;17.00;27.90;47.20;;;;;;111340;1246;53805;-59